createdAt,value
2023-01-26T00:00:55.421Z,100.00
2023-01-26T00:03:25.405Z,100.00
2023-01-26T00:05:55.306Z,100.00
2023-01-26T00:08:25.281Z,100.00
2023-01-26T00:10:54.900Z,100.00
2023-01-26T00:13:24.655Z,100.00
2023-01-26T00:15:54.285Z,100.00
2023-01-26T00:18:24.108Z,100.00
2023-01-26T00:21:01.872Z,100.00
2023-01-26T00:23:34.055Z,100.00
2023-01-26T00:26:07.282Z,100.00
2023-01-26T00:28:37.109Z,100.00
2023-01-26T00:31:12.233Z,100.00
2023-01-26T00:33:42.052Z,100.00
2023-01-26T00:36:13.687Z,100.00
2023-01-26T00:38:44.479Z,100.00
2023-01-26T00:41:34.644Z,100.00
2023-01-26T00:44:04.315Z,100.00
2023-01-26T00:46:33.861Z,100.00
2023-01-26T00:49:03.635Z,100.00
2023-01-26T00:51:35.739Z,100.00
2023-01-26T00:54:06.946Z,100.00
2023-01-26T00:56:36.701Z,100.00
2023-01-26T00:59:07.370Z,100.00
2023-01-26T01:01:44.783Z,100.00
2023-01-26T01:04:25.912Z,100.00
2023-01-26T01:07:04.616Z,100.00
2023-01-26T01:09:46.193Z,100.00
2023-01-26T01:12:24.680Z,100.00
2023-01-26T01:15:07.659Z,100.00
2023-01-26T01:17:51.785Z,100.00
2023-01-26T01:20:33.545Z,100.00
2023-01-26T01:23:16.205Z,100.00
2023-01-26T01:26:09.085Z,100.00
2023-01-26T01:28:47.528Z,100.00
2023-01-26T01:31:21.804Z,100.00
2023-01-26T01:33:54.309Z,100.00
2023-01-26T01:36:25.931Z,100.00
2023-01-26T01:38:56.996Z,100.00
2023-01-26T01:41:28.529Z,100.00
2023-01-26T01:44:37.713Z,100.00
2023-01-26T01:47:28.436Z,100.00
2023-01-26T01:49:59.280Z,100.00
2023-01-26T01:52:33.870Z,100.00
2023-01-26T01:55:09.371Z,100.00
2023-01-26T01:57:50.321Z,100.00
2023-01-26T02:00:23.811Z,100.00
2023-01-26T02:03:22.884Z,100.00
2023-01-26T02:06:01.757Z,100.00
2023-01-26T02:08:46.161Z,100.00
2023-01-26T02:11:21.654Z,100.00
2023-01-26T02:13:53.166Z,100.00
2023-01-26T02:16:23.927Z,100.00
2023-01-26T02:18:56.664Z,100.00
2023-01-26T02:21:27.147Z,100.00
2023-01-26T02:24:01.570Z,100.00
2023-01-26T02:26:36.028Z,100.00
2023-01-26T02:29:09.559Z,100.00
2023-01-26T02:31:44.707Z,100.00
2023-01-26T02:34:15.356Z,100.00
2023-01-26T02:36:45.860Z,100.00
2023-01-26T02:39:26.309Z,100.00
2023-01-26T02:42:15.535Z,100.00
2023-01-26T02:44:47.072Z,100.00
2023-01-26T02:47:20.962Z,100.00
2023-01-26T02:49:54.390Z,100.00
2023-01-26T02:52:27.433Z,100.00
2023-01-26T02:55:20.594Z,100.00
2023-01-26T02:57:52.717Z,100.00
2023-01-26T03:00:31.501Z,100.00
2023-01-26T03:03:07.743Z,100.00
2023-01-26T03:05:39.036Z,100.00
2023-01-26T03:08:09.788Z,100.00
2023-01-26T03:10:41.717Z,100.00
2023-01-26T03:13:12.450Z,100.00
2023-01-26T03:15:49.590Z,100.00
2023-01-26T03:18:40.053Z,100.00
2023-01-26T03:21:35.261Z,100.00
2023-01-26T03:24:24.407Z,100.00
2023-01-26T03:27:15.657Z,100.00
2023-01-26T03:29:46.859Z,100.00
2023-01-26T03:32:17.996Z,100.00
2023-01-26T03:34:49.077Z,100.00
2023-01-26T03:37:24.256Z,100.00
2023-01-26T03:40:24.440Z,100.00
2023-01-26T03:43:12.799Z,100.00
2023-01-26T03:46:01.826Z,100.00
2023-01-26T03:48:53.083Z,100.00
2023-01-26T03:51:41.578Z,100.00
2023-01-26T03:54:30.525Z,100.00
2023-01-26T03:57:00.756Z,100.00
2023-01-26T03:59:49.541Z,100.00
2023-01-26T04:02:41.069Z,100.00
2023-01-26T04:05:32.759Z,100.00
2023-01-26T04:08:28.512Z,100.00
2023-01-26T04:11:01.382Z,100.00
2023-01-26T04:13:50.514Z,100.00
2023-01-26T04:16:45.045Z,100.00
2023-01-26T04:19:33.553Z,100.00
2023-01-26T04:22:05.975Z,100.00
2023-01-26T04:24:37.933Z,100.00
2023-01-26T04:27:08.917Z,100.00
2023-01-26T04:29:41.872Z,100.00
2023-01-26T04:32:13.189Z,100.00
2023-01-26T04:34:43.845Z,100.00
2023-01-26T04:37:22.485Z,100.00
2023-01-26T04:39:54.611Z,100.00
2023-01-26T04:42:25.935Z,100.00
2023-01-26T04:44:57.534Z,100.00
2023-01-26T04:47:29.638Z,100.00
2023-01-26T04:50:00.203Z,100.00
2023-01-26T04:52:30.588Z,100.00
2023-01-26T04:55:00.817Z,100.00
2023-01-26T04:57:32.795Z,100.00
2023-01-26T05:00:06.285Z,100.00
2023-01-26T05:02:37.332Z,100.00
2023-01-26T05:05:09.285Z,100.00
2023-01-26T05:07:40.594Z,100.00
2023-01-26T05:10:15.520Z,100.00
2023-01-26T05:13:04.543Z,100.00
2023-01-26T05:15:54.652Z,100.00
2023-01-26T05:18:43.895Z,100.00
2023-01-26T05:21:31.470Z,100.00
2023-01-26T05:24:02.203Z,100.00
2023-01-26T05:27:13.005Z,100.00
2023-01-26T05:29:43.951Z,100.00
2023-01-26T05:32:14.139Z,100.00
2023-01-26T05:34:44.854Z,100.00
2023-01-26T05:37:16.323Z,100.00
2023-01-26T05:39:48.508Z,100.00
2023-01-26T05:42:19.361Z,100.00
2023-01-26T05:45:01.692Z,100.00
2023-01-26T05:47:33.025Z,100.00
2023-01-26T05:50:03.276Z,100.00
2023-01-26T05:52:35.047Z,100.00
2023-01-26T05:55:07.396Z,100.00
2023-01-26T05:57:37.948Z,100.00
2023-01-26T06:00:13.635Z,100.00
2023-01-26T06:02:48.649Z,100.00
2023-01-26T06:05:20.266Z,100.00
2023-01-26T06:07:52.956Z,100.00
2023-01-26T06:10:32.741Z,100.00
2023-01-26T06:13:17.845Z,100.00
2023-01-26T06:15:54.628Z,100.00
2023-01-26T06:18:28.800Z,100.00
2023-01-26T06:21:03.087Z,100.00
2023-01-26T06:23:33.817Z,100.00
2023-01-26T06:26:05.611Z,100.00
2023-01-26T06:28:37.508Z,100.00
2023-01-26T06:31:10.723Z,100.00
2023-01-26T06:33:42.213Z,100.00
2023-01-26T06:36:16.813Z,100.00
2023-01-26T06:38:58.150Z,100.00
2023-01-26T06:41:31.080Z,100.00
2023-01-26T06:44:01.654Z,100.00
2023-01-26T06:46:32.346Z,100.00
2023-01-26T06:49:05.193Z,100.00
2023-01-26T06:51:48.980Z,100.00
2023-01-26T06:54:20.385Z,100.00
2023-01-26T06:57:04.713Z,100.00
2023-01-26T06:59:52.606Z,100.00
2023-01-26T07:02:40.905Z,100.00
2023-01-26T07:05:11.401Z,100.00
2023-01-26T07:07:42.610Z,100.00
2023-01-26T07:10:13.144Z,100.00
2023-01-26T07:12:45.135Z,100.00
2023-01-26T07:15:15.316Z,100.00
2023-01-26T07:17:45.165Z,100.00
2023-01-26T07:20:14.901Z,100.00
2023-01-26T07:22:46.257Z,100.00
2023-01-26T07:25:16.451Z,100.00
2023-01-26T07:27:45.997Z,100.00
2023-01-26T07:30:16.069Z,100.00
2023-01-26T07:32:45.858Z,100.00
2023-01-26T07:35:15.491Z,100.00
2023-01-26T07:37:45.418Z,100.00
2023-01-26T07:40:15.222Z,100.00
2023-01-26T07:42:45.088Z,100.00
2023-01-26T07:45:40.216Z,100.00
2023-01-26T07:48:10.876Z,100.00
2023-01-26T07:50:40.726Z,100.00
2023-01-26T07:53:10.653Z,100.00
2023-01-26T07:55:40.641Z,100.00
2023-01-26T07:58:10.132Z,100.00
2023-01-26T08:00:41.159Z,100.00
2023-01-26T08:03:10.935Z,100.00
2023-01-26T10:04:44.248Z,45.94
2023-01-26T10:07:15.553Z,45.10
2023-01-26T10:31:34.281Z,46.50
2023-01-26T10:38:37.436Z,45.77
2023-01-26T10:41:30.242Z,46.28
2023-01-26T10:44:03.694Z,47.00
2023-01-26T10:46:44.259Z,46.91
2023-01-26T10:49:15.465Z,46.22
2023-01-26T10:51:50.089Z,47.11
2023-01-26T10:54:26.924Z,47.47
2023-01-26T10:57:00.755Z,47.33
2023-01-26T10:59:40.243Z,46.47
2023-01-26T11:02:21.298Z,47.14
2023-01-26T11:05:24.412Z,46.60
2023-01-26T11:08:08.053Z,46.55
2023-01-26T11:10:52.380Z,47.63
2023-01-26T11:13:23.181Z,47.91
2023-01-26T11:16:06.252Z,47.93
2023-01-26T11:18:43.909Z,48.29
2023-01-26T11:21:45.800Z,48.59
2023-01-26T11:24:46.608Z,49.07
2023-01-26T11:27:30.970Z,48.82
2023-01-26T11:30:34.260Z,48.97
2023-01-26T11:33:27.490Z,49.40
2023-01-26T11:36:07.206Z,49.06
2023-01-26T11:38:52.807Z,49.28
2023-01-26T11:41:26.544Z,49.97
2023-01-26T11:44:10.331Z,49.91
2023-01-26T11:47:01.133Z,50.30
2023-01-26T11:50:02.693Z,50.24
2023-01-26T11:57:22.865Z,49.21
2023-01-26T12:00:03.555Z,48.96
2023-01-26T12:02:45.586Z,47.53
2023-01-26T12:05:28.602Z,46.85
2023-01-26T12:08:01.395Z,47.83
2023-01-26T12:11:23.147Z,48.04
2023-01-26T12:14:24.355Z,47.75
2023-01-26T12:17:16.709Z,48.03
2023-01-26T12:20:27.903Z,49.09
2023-01-26T12:23:02.607Z,50.66
2023-01-26T12:25:36.782Z,50.54
2023-01-26T12:29:04.996Z,50.79
2023-01-26T12:31:47.688Z,51.16
2023-01-26T12:34:18.188Z,51.54
2023-01-26T12:37:11.834Z,52.05
2023-01-26T12:39:56.013Z,52.60
2023-01-26T12:42:57.637Z,52.30
2023-01-26T12:45:34.033Z,53.22
2023-01-26T12:48:28.896Z,52.89
2023-01-26T12:51:21.646Z,53.78
2023-01-26T12:53:51.269Z,53.55
2023-01-26T12:56:41.513Z,54.16
2023-01-26T12:59:47.288Z,54.12
2023-01-26T13:02:35.412Z,55.61
2023-01-26T13:05:06.214Z,55.62
2023-01-26T13:07:40.786Z,55.06
2023-01-26T13:10:20.428Z,55.50
2023-01-26T13:12:53.270Z,55.35
2023-01-26T13:15:26.360Z,55.63
2023-01-26T13:18:02.180Z,55.97
2023-01-26T13:20:49.680Z,55.97
2023-01-26T13:23:44.601Z,56.76
2023-01-26T13:26:44.956Z,56.81
2023-01-26T13:29:33.637Z,58.17
2023-01-26T13:32:22.787Z,57.94
2023-01-26T13:35:00.623Z,58.14
2023-01-26T13:37:53.546Z,59.21
2023-01-26T13:40:41.687Z,59.01
2023-01-26T13:43:26.163Z,59.40
2023-01-26T13:46:12.761Z,60.28
2023-01-26T13:48:46.377Z,59.98
2023-01-26T13:51:24.222Z,61.16
2023-01-26T13:54:08.093Z,60.65
2023-01-26T13:56:38.882Z,60.70
2023-01-26T13:59:17.213Z,61.01
2023-01-26T14:01:52.520Z,60.91
2023-01-26T14:04:25.379Z,62.44
2023-01-26T14:06:57.434Z,61.09
2023-01-26T14:09:32.948Z,61.41
2023-01-26T14:12:05.918Z,61.56
2023-01-26T14:14:38.565Z,63.47
2023-01-26T14:17:24.292Z,64.12
2023-01-26T14:19:56.559Z,64.82
2023-01-26T14:22:26.268Z,64.33
2023-01-26T14:24:56.703Z,63.26
2023-01-26T14:27:34.489Z,64.85
2023-01-26T14:30:10.186Z,65.11
2023-01-26T14:32:40.618Z,64.58
2023-01-26T14:35:24.016Z,64.38
2023-01-26T14:38:12.109Z,65.53
2023-01-26T14:40:53.007Z,65.79
2023-01-26T14:43:23.633Z,66.22
2023-01-26T14:46:17.201Z,65.47
2023-01-26T14:48:58.290Z,67.13
2023-01-26T14:51:29.864Z,66.46
2023-01-26T14:54:12.151Z,66.14
2023-01-26T14:56:44.333Z,67.00
2023-01-26T14:59:24.133Z,66.90
2023-01-26T15:02:03.414Z,67.92
2023-01-26T15:04:40.815Z,69.26
2023-01-26T15:07:43.880Z,69.66
2023-01-26T15:11:20.995Z,69.50
2023-01-26T15:13:56.209Z,70.38
2023-01-26T15:16:27.695Z,70.32
2023-01-26T15:19:09.091Z,71.12
2023-01-26T15:21:44.754Z,70.01
2023-01-26T15:24:16.417Z,70.70
2023-01-26T15:26:46.111Z,70.78
2023-01-26T15:29:27.505Z,71.05
2023-01-26T15:31:58.176Z,69.75
2023-01-26T15:34:33.965Z,70.14
2023-01-26T15:37:05.463Z,70.30
2023-01-26T15:39:35.070Z,70.71
2023-01-26T15:42:15.379Z,71.77
2023-01-26T15:44:45.012Z,71.50
2023-01-26T15:47:14.819Z,71.59
2023-01-26T15:49:44.306Z,71.84
2023-01-26T15:52:42.872Z,72.84
2023-01-26T15:55:40.941Z,73.02
2023-01-26T15:58:10.473Z,73.35
2023-01-26T16:00:40.402Z,72.55
2023-01-26T16:03:17.885Z,72.96
2023-01-26T16:05:51.182Z,73.03
2023-01-26T16:08:21.485Z,73.92
2023-01-26T16:10:50.891Z,74.20
2023-01-26T16:13:20.761Z,73.99
2023-01-26T16:15:57.824Z,74.45
2023-01-26T16:18:27.488Z,74.22
2023-01-26T16:20:58.215Z,74.45
2023-01-26T16:23:30.418Z,75.52
2023-01-26T16:25:59.860Z,75.24
2023-01-26T16:28:29.577Z,76.12
2023-01-26T16:31:02.515Z,75.72
2023-01-26T16:33:32.089Z,75.89
2023-01-26T16:36:01.156Z,76.38
2023-01-26T16:38:30.481Z,76.42
2023-01-26T16:40:59.996Z,76.88
2023-01-26T16:43:30.527Z,77.83
2023-01-26T16:46:00.720Z,77.59
2023-01-26T16:48:35.631Z,78.00
2023-01-26T16:51:18.704Z,78.27
2023-01-26T16:53:52.862Z,78.15
2023-01-26T16:56:22.814Z,78.06
2023-01-26T16:58:53.092Z,79.07
2023-01-26T17:01:26.574Z,78.71
2023-01-26T17:03:59.101Z,79.23
2023-01-26T17:06:30.011Z,79.68
2023-01-26T17:09:00.445Z,79.33
2023-01-26T17:11:31.207Z,79.27
2023-01-26T17:14:01.395Z,79.41
2023-01-26T17:16:35.047Z,80.63
2023-01-26T17:19:07.891Z,80.57
2023-01-26T17:21:38.875Z,81.85
2023-01-26T17:24:08.477Z,81.00
2023-01-26T17:26:37.903Z,81.77
2023-01-26T17:29:06.970Z,80.59
2023-01-26T17:31:36.696Z,80.61
2023-01-26T17:34:06.048Z,80.93
2023-01-26T17:36:35.429Z,81.16
2023-01-26T17:39:04.716Z,80.80
2023-01-26T17:41:34.085Z,80.47
2023-01-26T17:44:03.331Z,80.90
2023-01-26T17:46:32.642Z,80.38
2023-01-26T17:49:02.151Z,80.92
2023-01-26T17:51:31.684Z,81.09
2023-01-26T17:54:01.061Z,80.51
2023-01-26T17:56:31.928Z,79.86
2023-01-26T17:59:02.375Z,81.81
2023-01-26T18:01:32.026Z,81.15
2023-01-26T18:04:01.357Z,81.06
2023-01-26T18:06:32.348Z,80.84
2023-01-26T18:09:01.684Z,82.06
2023-01-26T18:11:30.789Z,81.08
2023-01-26T18:14:00.979Z,81.47
2023-01-26T18:16:31.246Z,81.59
2023-01-26T18:19:06.049Z,82.23
2023-01-26T18:21:36.004Z,82.03
2023-01-26T18:24:07.590Z,82.19
2023-01-26T18:26:38.331Z,81.86
2023-01-26T18:29:09.960Z,82.38
2023-01-26T18:31:44.401Z,82.80
2023-01-26T18:34:14.078Z,83.01
2023-01-26T18:36:43.237Z,82.30
2023-01-26T18:39:15.526Z,82.24
2023-01-26T18:41:45.120Z,82.86
2023-01-26T18:44:17.316Z,82.38
2023-01-26T18:46:48.261Z,82.82
2023-01-26T18:49:17.860Z,82.13
2023-01-26T18:51:49.285Z,82.62
2023-01-26T18:54:21.479Z,82.22
2023-01-26T18:56:50.921Z,84.07
2023-01-26T18:59:19.938Z,83.38
2023-01-26T19:01:50.198Z,83.00
2023-01-26T19:04:19.707Z,82.44
2023-01-26T19:06:48.875Z,82.18
2023-01-26T19:09:18.275Z,83.33
2023-01-26T19:11:47.298Z,84.01
2023-01-26T19:14:16.847Z,83.17
2023-01-26T19:16:48.786Z,82.86
2023-01-26T19:19:18.188Z,83.62
2023-01-26T19:21:50.772Z,84.37
2023-01-26T19:24:21.607Z,84.78
2023-01-26T19:26:50.993Z,84.23
2023-01-26T19:29:20.169Z,84.68
2023-01-26T19:31:49.479Z,85.16
2023-01-26T19:34:18.801Z,84.06
2023-01-26T19:36:48.932Z,85.31
2023-01-26T19:39:19.046Z,85.17
2023-01-26T19:41:48.183Z,84.73
2023-01-26T19:44:17.450Z,84.86
2023-01-26T19:46:46.471Z,85.76
2023-01-26T19:49:18.110Z,86.00
2023-01-26T19:51:47.763Z,85.31
2023-01-26T19:54:17.115Z,85.29
2023-01-26T19:56:46.331Z,84.90
2023-01-26T19:59:15.410Z,85.40
2023-01-26T20:01:44.807Z,84.52
2023-01-26T20:04:15.970Z,85.73
2023-01-26T20:06:45.490Z,85.94
2023-01-26T20:09:14.541Z,86.00
2023-01-26T20:11:44.003Z,86.25
2023-01-26T20:14:12.948Z,85.98
2023-01-26T20:16:42.880Z,87.11
2023-01-26T20:19:14.173Z,86.69
2023-01-26T20:21:43.969Z,86.23
2023-01-26T20:24:15.342Z,87.59
2023-01-26T20:26:45.697Z,87.16
2023-01-26T20:29:18.051Z,87.45
2023-01-26T20:31:49.267Z,87.15
2023-01-26T20:34:23.030Z,87.41
2023-01-26T20:36:55.579Z,86.94
2023-01-26T20:39:26.302Z,87.52
2023-01-26T20:41:56.167Z,88.12
2023-01-26T20:44:25.426Z,88.08
2023-01-26T20:46:55.943Z,87.97
2023-01-26T20:49:25.661Z,88.17
2023-01-26T20:51:58.177Z,88.87
2023-01-26T20:54:29.653Z,88.29
2023-01-26T20:56:59.141Z,88.72
2023-01-26T20:59:31.381Z,88.17
2023-01-26T21:02:01.138Z,87.21
2023-01-26T21:04:33.085Z,87.29
2023-01-26T21:07:02.751Z,87.33
2023-01-26T21:09:32.609Z,87.22
2023-01-26T21:12:02.310Z,86.40
2023-01-26T21:14:31.809Z,87.37
2023-01-26T21:17:01.116Z,87.32
2023-01-26T21:19:30.900Z,86.44
2023-01-26T21:22:00.510Z,87.50
2023-01-26T21:24:29.799Z,87.49
2023-01-26T21:26:58.726Z,86.98
2023-01-26T21:29:28.350Z,87.76
2023-01-26T21:31:57.661Z,86.70
2023-01-26T21:34:26.839Z,87.54
2023-01-26T21:36:56.115Z,86.98
2023-01-26T21:39:25.644Z,87.25
2023-01-26T21:41:57.419Z,85.45
2023-01-26T21:44:33.772Z,86.34
2023-01-26T21:47:04.938Z,83.97
2023-01-26T21:49:34.197Z,85.15
2023-01-26T21:52:21.742Z,85.44
2023-01-26T21:54:50.975Z,84.33
2023-01-26T21:57:38.019Z,84.59
2023-01-26T22:00:07.804Z,84.42
2023-01-26T22:02:36.923Z,84.72
2023-01-26T22:05:06.798Z,83.14
2023-01-26T22:07:36.083Z,81.84
2023-01-26T22:10:07.238Z,80.96
2023-01-26T22:12:36.394Z,79.93
2023-01-26T22:15:06.668Z,79.06
2023-01-26T22:17:36.015Z,77.83
2023-01-26T22:20:06.309Z,80.04
2023-01-26T22:22:35.573Z,79.41
2023-01-26T22:25:04.823Z,79.42
2023-01-26T22:27:34.260Z,79.73
2023-01-26T22:30:03.421Z,79.74
2023-01-26T22:32:33.372Z,79.43
2023-01-26T22:35:02.682Z,79.14
2023-01-26T22:37:32.567Z,78.99
2023-01-26T22:40:02.363Z,78.27
2023-01-26T22:42:31.624Z,77.81
2023-01-26T22:45:01.214Z,78.30
2023-01-26T22:47:30.633Z,77.19
2023-01-26T22:50:00.134Z,77.24
2023-01-26T22:52:29.367Z,76.99
2023-01-26T22:54:58.797Z,76.05
2023-01-26T22:57:28.171Z,75.45
2023-01-26T22:59:57.584Z,76.41
2023-01-26T23:02:26.980Z,75.01
2023-01-26T23:04:56.190Z,76.20
2023-01-26T23:07:25.606Z,75.03
2023-01-26T23:09:55.034Z,75.10
2023-01-26T23:12:24.046Z,73.94
2023-01-26T23:14:53.544Z,73.54
2023-01-26T23:17:25.930Z,73.70
2023-01-26T23:19:56.236Z,71.88
2023-01-26T23:22:25.873Z,71.28
2023-01-26T23:25:12.987Z,70.10
2023-01-26T23:27:42.512Z,69.47
2023-01-26T23:30:12.737Z,70.49
2023-01-26T23:32:42.501Z,70.46
2023-01-26T23:35:11.776Z,69.86
2023-01-26T23:37:41.254Z,70.25
2023-01-26T23:40:11.465Z,70.47
2023-01-26T23:43:00.435Z,70.03
2023-01-26T23:45:30.984Z,71.12
2023-01-26T23:48:00.607Z,71.27
2023-01-26T23:50:30.848Z,71.98
2023-01-26T23:53:00.215Z,72.60
2023-01-26T23:55:30.346Z,73.14
2023-01-26T23:58:00.144Z,73.22
